Time;durP1;ratioP1;P1;durP2;ratioP2;P2;SDS_P1;SDS_P2;PMS_P1;PMS_P2;Temp;Humidity;BMP_temperature;BMP_pressure;BME280_temperature;BME280_humidity;BME280_pressure;Samples;Min_cycle;Max_cycle;Signal;HPM_P1;HPM_P2
2022/04/15 00:01:53;;;;;;;;;;;;;;;16.35;50.37;102590.84;5051593;28;20372;-73
2022/04/15 00:04:18;;;;;;;;;;;;;;;17.12;48.19;102578.69;5049538;28;19912;-73
2022/04/15 00:06:43;;;;;;;;;;;;;;;16.14;50.79;102590.41;5053601;28;19916;-75
2022/04/15 00:09:09;;;;;;;;;;;;;;;16.10;50.31;102583.75;5055042;28;20308;-74
2022/04/15 00:11:34;;;;;;;;;;;;;;;16.08;50.57;102581.25;5056235;28;20000;-72
2022/04/15 00:14:00;;;;;;;;;;;;;;;15.57;52.13;102588.63;5055908;28;19923;-75
2022/04/15 00:16:25;;;;;;;;;;;;;;;16.03;51.15;102591.09;5089176;28;19915;-75
2022/04/15 00:18:50;;;;;;;;;;;;;;;16.81;48.60;102584.22;5056078;28;19919;-73
2022/04/15 00:21:16;;;;;;;;;;;;;;;17.28;47.32;102581.63;5056183;28;19923;-73
2022/04/15 00:23:41;;;;;;;;;;;;;;;17.07;47.68;102589.41;5055697;28;19924;-74
2022/04/15 00:26:06;;;;;;;;;;;;;;;16.77;48.66;102583.00;5053743;28;19920;-73
2022/04/15 00:28:32;;;;;;;;;;;;;;;17.43;46.40;102582.06;5056576;28;20016;-73
2022/04/15 00:30:57;;;;;;;;;;;;;;;17.05;47.76;102577.94;5056115;28;19987;-73
2022/04/15 00:33:23;;;;;;;;;;;;;;;15.69;50.75;102592.34;5055797;28;19924;-74
2022/04/15 00:35:48;;;;;;;;;;;;;;;15.65;50.84;102585.69;5055302;28;19956;-74
2022/04/15 00:38:31;;;;;;;;;;;;;;;15.10;52.47;102591.69;5055178;28;19955;-73
2022/04/15 00:40:56;;;;;;;;;;;;;;;16.01;50.52;102588.63;5055773;28;19919;-75
2022/04/15 00:43:22;;;;;;;;;;;;;;;16.98;47.16;102594.28;5055734;28;19909;-74
2022/04/15 00:45:47;;;;;;;;;;;;;;;17.17;46.79;102590.53;5055763;28;19956;-76
2022/04/15 00:48:13;;;;;;;;;;;;;;;15.84;50.49;102601.03;5055815;28;20369;-75
2022/04/15 00:50:40;;;;;;;;;;;;;;;14.77;52.98;102599.88;5055969;28;19917;-73
2022/04/15 00:53:10;;;;;;;;;;;;;;;15.03;52.40;102599.00;5055690;28;19953;-74
2022/04/15 00:55:36;;;;;;;;;;;;;;;15.89;49.73;102600.38;5055450;28;19941;-74
2022/04/15 00:58:03;;;;;;;;;;;;;;;15.32;51.21;102595.81;5055304;28;19938;-73
2022/04/15 01:00:30;;;;;;;;;;;;;;;15.23;51.59;102602.50;5055065;28;19940;-73
2022/04/15 01:02:59;;;;;;;;;;;;;;;15.61;50.68;102595.28;5057148;28;19913;-75
2022/04/15 01:05:25;;;;;;;;;;;;;;;15.47;50.21;102597.22;5050360;28;19928;-74
2022/04/15 01:07:51;;;;;;;;;;;;;;;15.65;49.84;102599.22;5035866;28;19913;-74
2022/04/15 01:10:17;;;;;;;;;;;;;;;16.54;47.50;102602.66;5035410;28;20383;-73
2022/04/15 01:12:47;;;;;;;;;;;;;;;15.32;50.75;102602.06;5035158;28;19921;-75
2022/04/15 01:15:13;;;;;;;;;;;;;;;15.49;50.90;102608.69;5034712;28;20388;-74
2022/04/15 01:17:39;;;;;;;;;;;;;;;16.41;47.76;102606.25;5033438;28;20008;-73
2022/04/15 01:20:05;;;;;;;;;;;;;;;16.09;48.79;102610.06;5049533;28;20345;-74
2022/04/15 01:22:41;;;;;;;;;;;;;;;16.16;48.67;102610.84;5055464;28;20322;-73
2022/04/15 01:25:07;;;;;;;;;;;;;;;16.23;48.42;102613.50;5055021;28;19942;-75
2022/04/15 01:27:39;;;;;;;;;;;;;;;15.60;50.11;102613.44;5054520;28;19924;-74
2022/04/15 01:30:05;;;;;;;;;;;;;;;15.95;49.55;102611.19;5055296;28;19916;-75
2022/04/15 01:32:31;;;;;;;;;;;;;;;15.45;50.70;102614.78;5054641;28;19999;-75
2022/04/15 01:34:56;;;;;;;;;;;;;;;15.39;50.84;102618.31;5054399;28;19972;-75
2022/04/15 01:37:23;;;;;;;;;;;;;;;14.69;52.54;102616.34;5054842;28;19934;-73
2022/04/15 01:39:48;;;;;;;;;;;;;;;15.19;51.68;102622.94;5055195;28;20396;-75
2022/04/15 01:42:14;;;;;;;;;;;;;;;15.34;51.28;102618.09;5084620;28;19913;-72
2022/04/15 01:44:40;;;;;;;;;;;;;;;15.75;50.06;102622.13;5052891;28;19921;-75
2022/04/15 01:47:05;;;;;;;;;;;;;;;15.68;49.88;102623.22;5054947;28;20339;-74
2022/04/15 01:49:31;;;;;;;;;;;;;;;15.00;52.11;102626.53;5055080;28;20368;-73
2022/04/15 01:51:56;;;;;;;;;;;;;;;15.43;51.04;102625.00;5054219;28;19917;-73
2022/04/15 01:54:21;;;;;;;;;;;;;;;15.25;51.44;102630.22;5053939;28;19913;-73
2022/04/15 01:56:46;;;;;;;;;;;;;;;15.23;51.38;102635.84;5054877;28;20355;-73
2022/04/15 01:59:12;;;;;;;;;;;;;;;15.14;51.83;102633.56;5056052;28;19917;-74
2022/04/15 02:01:37;;;;;;;;;;;;;;;15.45;50.55;102631.84;5053190;28;19920;-74
2022/04/15 02:04:02;;;;;;;;;;;;;;;15.79;49.62;102636.06;5053681;28;19917;-75
2022/04/15 02:06:28;;;;;;;;;;;;;;;15.38;50.35;102628.28;5053893;28;19925;-74
2022/04/15 02:08:53;;;;;;;;;;;;;;;15.15;51.33;102630.66;5052454;28;19962;-74
2022/04/15 02:11:18;;;;;;;;;;;;;;;15.19;51.41;102631.06;5053858;28;19920;-73
2022/04/15 02:13:44;;;;;;;;;;;;;;;15.55;50.52;102634.94;5052985;28;19916;-73
2022/04/15 02:16:09;;;;;;;;;;;;;;;15.77;49.47;102630.88;5053139;28;19948;-74
2022/04/15 02:18:34;;;;;;;;;;;;;;;15.02;51.60;102633.38;5053371;28;19913;-73
2022/04/15 02:20:59;;;;;;;;;;;;;;;15.43;50.01;102630.41;5053839;28;19943;-72
2022/04/15 02:23:43;;;;;;;;;;;;;;;15.93;49.02;102632.25;5053186;28;19991;-73
2022/04/15 02:26:09;;;;;;;;;;;;;;;15.67;48.98;102632.38;5052713;28;20018;-73
2022/04/15 02:28:34;;;;;;;;;;;;;;;15.43;50.37;102639.34;5052501;28;20086;-72
2022/04/15 02:30:59;;;;;;;;;;;;;;;15.15;51.00;102640.66;5053236;28;19920;-74
2022/04/15 02:33:25;;;;;;;;;;;;;;;14.70;52.50;102640.47;5053313;28;19923;-73
2022/04/15 02:35:50;;;;;;;;;;;;;;;15.19;50.86;102647.31;5052811;28;20007;-74
2022/04/15 02:38:16;;;;;;;;;;;;;;;15.16;51.23;102643.13;5051791;28;19925;-74
2022/04/15 02:40:42;;;;;;;;;;;;;;;15.40;50.30;102647.88;5053546;28;19920;-73
2022/04/15 02:43:08;;;;;;;;;;;;;;;15.47;49.98;102645.16;5053340;28;19919;-75
2022/04/15 02:45:33;;;;;;;;;;;;;;;15.36;49.57;102653.94;5052954;28;19921;-74
2022/04/15 02:47:58;;;;;;;;;;;;;;;15.35;50.11;102653.09;5053191;28;20268;-73
2022/04/15 02:50:24;;;;;;;;;;;;;;;15.62;49.67;102660.16;5053293;28;19921;-75
2022/04/15 02:52:49;;;;;;;;;;;;;;;15.26;50.25;102658.94;5053012;28;19920;-75
2022/04/15 02:55:33;;;;;;;;;;;;;;;14.89;50.77;102657.75;5055347;28;19917;-74
2022/04/15 02:57:58;;;;;;;;;;;;;;;15.10;50.38;102660.22;5052303;28;19913;-74
2022/04/15 03:00:24;;;;;;;;;;;;;;;15.35;49.66;102660.41;5053809;28;20011;-74
2022/04/15 03:02:49;;;;;;;;;;;;;;;15.70;48.89;102654.44;5053084;28;19921;-77
2022/04/15 03:05:14;;;;;;;;;;;;;;;15.66;48.51;102658.63;5053072;28;19920;-75
2022/04/15 03:07:40;;;;;;;;;;;;;;;15.49;48.75;102665.59;5053533;28;19913;-73
2022/04/15 03:10:24;;;;;;;;;;;;;;;15.23;49.94;102654.81;5053045;28;19916;-75
2022/04/15 03:12:49;;;;;;;;;;;;;;;15.23;49.66;102656.69;5052810;28;20373;-73
2022/04/15 03:15:15;;;;;;;;;;;;;;;15.22;49.51;102658.53;5052938;28;19917;-74
2022/04/15 03:17:40;;;;;;;;;;;;;;;14.54;52.24;102654.44;5052872;28;19952;-74
2022/04/15 03:20:06;;;;;;;;;;;;;;;14.80;50.89;102659.84;5051578;28;19920;-73
2022/04/15 03:22:38;;;;;;;;;;;;;;;14.84;50.76;102660.25;5053577;28;19908;-74
2022/04/15 03:25:04;;;;;;;;;;;;;;;15.23;49.59;102651.25;5052474;28;19952;-74
2022/04/15 03:27:30;;;;;;;;;;;;;;;15.23;49.32;102657.53;5052591;28;19924;-77
2022/04/15 03:29:55;;;;;;;;;;;;;;;15.01;50.37;102655.25;5053295;28;19923;-73
2022/04/15 03:32:20;;;;;;;;;;;;;;;14.11;52.67;102656.59;5052918;28;19999;-75
2022/04/15 03:34:45;;;;;;;;;;;;;;;14.78;51.16;102655.69;5053505;28;19916;-74
2022/04/15 03:37:11;;;;;;;;;;;;;;;14.58;51.53;102666.50;5047970;28;19913;-75
2022/04/15 03:39:36;;;;;;;;;;;;;;;14.18;52.65;102662.03;5032441;28;19917;-76
2022/04/15 03:42:02;;;;;;;;;;;;;;;14.16;52.89;102653.28;5032940;28;20442;-75
2022/04/15 03:44:27;;;;;;;;;;;;;;;14.73;51.40;102656.31;5051579;28;19925;-74
2022/04/15 03:46:52;;;;;;;;;;;;;;;14.17;52.83;102657.66;5085116;28;19935;-74
2022/04/15 03:49:18;;;;;;;;;;;;;;;14.76;51.34;102668.59;5053585;28;19970;-74
2022/04/15 03:51:43;;;;;;;;;;;;;;;14.98;50.29;102661.09;5072285;28;19923;-74
2022/04/15 03:54:08;;;;;;;;;;;;;;;14.38;51.52;102668.34;5071954;28;20032;-74
2022/04/15 03:56:34;;;;;;;;;;;;;;;14.00;52.67;102672.59;5072136;28;20011;-74
2022/04/15 03:58:59;;;;;;;;;;;;;;;14.47;52.26;102672.50;5071956;28;19952;-73
2022/04/15 04:01:24;;;;;;;;;;;;;;;15.26;49.11;102673.34;5065744;28;20368;-74
2022/04/15 04:03:50;;;;;;;;;;;;;;;14.98;49.79;102675.44;5052041;28;19931;-73
2022/04/15 04:06:16;;;;;;;;;;;;;;;15.11;49.56;102670.03;5051655;28;19928;-73
2022/04/15 04:08:49;;;;;;;;;;;;;;;15.24;48.87;102674.56;5051229;28;19912;-74
2022/04/15 04:11:14;;;;;;;;;;;;;;;15.14;49.17;102679.59;5050838;28;19924;-74
2022/04/15 04:13:39;;;;;;;;;;;;;;;15.29;49.02;102678.31;5052629;28;20328;-75
2022/04/15 04:16:04;;;;;;;;;;;;;;;15.32;48.73;102685.19;5051713;28;20381;-75
2022/04/15 04:18:30;;;;;;;;;;;;;;;15.38;48.40;102682.47;5052173;28;20394;-74
2022/04/15 04:20:55;;;;;;;;;;;;;;;15.19;48.62;102680.66;5042524;28;20388;-73
2022/04/15 04:23:20;;;;;;;;;;;;;;;14.07;51.81;102687.78;5032292;28;19924;-74
2022/04/15 04:25:45;;;;;;;;;;;;;;;14.07;52.56;102689.69;5032234;28;20437;-74
2022/04/15 04:28:11;;;;;;;;;;;;;;;14.81;51.04;102685.03;5031912;28;19925;-72
2022/04/15 04:30:36;;;;;;;;;;;;;;;15.44;48.75;102691.66;5045194;28;19917;-73
2022/04/15 04:33:02;;;;;;;;;;;;;;;15.77;48.40;102686.97;5051773;28;19920;-73
2022/04/15 04:35:28;;;;;;;;;;;;;;;15.10;49.36;102691.88;5051154;28;20281;-73
2022/04/15 04:37:53;;;;;;;;;;;;;;;13.95;53.14;102699.41;5052162;28;19909;-74
2022/04/15 04:40:18;;;;;;;;;;;;;;;14.49;52.27;102699.34;5051974;28;19931;-77
2022/04/15 04:42:47;;;;;;;;;;;;;;;14.66;51.37;102698.75;5051096;28;19913;-74
2022/04/15 04:45:12;;;;;;;;;;;;;;;14.90;50.58;102700.00;5051414;28;19944;-76
2022/04/15 04:47:43;;;;;;;;;;;;;;;15.09;50.05;102709.19;5051966;28;19913;-74
2022/04/15 04:50:09;;;;;;;;;;;;;;;15.10;49.95;102708.13;5051695;28;20003;-77
2022/04/15 04:52:35;;;;;;;;;;;;;;;14.63;50.82;102709.16;5052400;28;20052;-73
2022/04/15 04:55:00;;;;;;;;;;;;;;;15.27;49.42;102712.91;5052349;28;19927;-74
2022/04/15 04:57:25;;;;;;;;;;;;;;;14.81;50.82;102712.94;5055237;28;19982;-74
2022/04/15 04:59:51;;;;;;;;;;;;;;;15.88;47.98;102723.44;5054689;28;19939;-75
2022/04/15 05:02:16;;;;;;;;;;;;;;;15.11;49.69;102732.31;5055153;28;19960;-74
2022/04/15 05:04:41;;;;;;;;;;;;;;;15.12;49.87;102725.00;5054922;28;19920;-73
2022/04/15 05:07:06;;;;;;;;;;;;;;;15.41;49.36;102735.41;5055275;28;19913;-74
2022/04/15 05:09:32;;;;;;;;;;;;;;;15.76;48.26;102739.53;5054762;28;19912;-76
2022/04/15 05:11:57;;;;;;;;;;;;;;;14.74;50.65;102739.16;5054672;28;19917;-75
2022/04/15 05:14:22;;;;;;;;;;;;;;;15.42;49.13;102742.53;5054430;28;20376;-75
2022/04/15 05:16:48;;;;;;;;;;;;;;;15.60;48.94;102735.41;5055091;28;19912;-73
2022/04/15 05:19:13;;;;;;;;;;;;;;;15.40;49.08;102750.84;5054901;28;19913;-73
2022/04/15 05:21:39;;;;;;;;;;;;;;;15.84;48.33;102750.97;5054399;28;20316;-75
2022/04/15 05:24:05;;;;;;;;;;;;;;;16.74;45.96;102757.22;5054223;28;19917;-74
2022/04/15 05:26:33;;;;;;;;;;;;;;;16.18;46.54;102759.78;5054214;28;19921;-73
2022/04/15 05:28:59;;;;;;;;;;;;;;;16.04;47.74;102760.94;5054671;28;19917;-75
2022/04/15 05:31:24;;;;;;;;;;;;;;;16.17;47.23;102766.28;5054829;28;20015;-73
2022/04/15 05:33:49;;;;;;;;;;;;;;;16.11;47.32;102775.28;5054285;28;19920;-74
2022/04/15 05:36:14;;;;;;;;;;;;;;;16.49;46.59;102778.91;5054197;28;19917;-73
2022/04/15 05:38:39;;;;;;;;;;;;;;;16.35;46.87;102775.38;5054497;28;20002;-73
2022/04/15 05:41:06;;;;;;;;;;;;;;;15.43;49.49;102776.72;5054505;28;19912;-73
2022/04/15 05:43:31;;;;;;;;;;;;;;;16.41;47.20;102782.66;5055214;28;20328;-75
2022/04/15 05:45:56;;;;;;;;;;;;;;;16.61;46.46;102780.69;5054787;28;19956;-72
2022/04/15 05:48:21;;;;;;;;;;;;;;;16.56;46.63;102790.56;5054449;28;20373;-77
2022/04/15 05:50:47;;;;;;;;;;;;;;;16.85;45.72;102792.66;5053234;28;19917;-73
2022/04/15 05:53:13;;;;;;;;;;;;;;;16.16;47.55;102794.44;5051852;28;19920;-72
2022/04/15 05:55:38;;;;;;;;;;;;;;;15.88;48.51;102794.75;5052270;28;19912;-72
2022/04/15 05:58:04;;;;;;;;;;;;;;;16.44;47.12;102793.09;5049139;28;20288;-73
2022/04/15 06:00:29;;;;;;;;;;;;;;;16.72;46.95;102800.06;5054484;28;19924;-74
2022/04/15 06:02:54;;;;;;;;;;;;;;;17.06;45.46;102803.16;5053861;28;20361;-73
2022/04/15 06:05:20;;;;;;;;;;;;;;;17.10;45.36;102809.00;5053166;28;19921;-74
2022/04/15 06:07:45;;;;;;;;;;;;;;;16.43;46.71;102810.41;5054379;28;19915;-75
2022/04/15 06:10:10;;;;;;;;;;;;;;;15.50;50.10;102810.88;5054179;28;19924;-73
2022/04/15 06:12:57;;;;;;;;;;;;;;;15.26;50.48;102818.75;5053547;28;19912;-75
2022/04/15 06:15:28;;;;;;;;;;;;;;;17.57;44.35;102818.47;5051478;28;19916;-74
2022/04/15 06:17:54;;;;;;;;;;;;;;;17.45;44.80;102823.78;5053294;28;19913;-75
2022/04/15 06:20:19;;;;;;;;;;;;;;;17.61;44.00;102823.22;5053222;28;19943;-73
2022/04/15 06:22:44;;;;;;;;;;;;;;;17.57;44.07;102815.75;5053682;28;19908;-75
2022/04/15 06:25:10;;;;;;;;;;;;;;;17.69;44.01;102820.22;5053052;28;20059;-74
2022/04/15 06:27:35;;;;;;;;;;;;;;;17.20;45.08;102828.34;5053011;28;19920;-74
2022/04/15 06:30:01;;;;;;;;;;;;;;;17.01;45.56;102819.28;5053470;28;19967;-73
2022/04/15 06:32:26;;;;;;;;;;;;;;;16.72;46.37;102825.34;5052891;28;20436;-76
2022/04/15 06:34:51;;;;;;;;;;;;;;;16.61;46.97;102824.13;5054132;28;19912;-76
2022/04/15 06:37:16;;;;;;;;;;;;;;;16.53;47.51;102828.97;5052133;28;19913;-74
2022/04/15 06:39:42;;;;;;;;;;;;;;;16.73;46.87;102824.28;5055918;28;19918;-75
2022/04/15 06:42:08;;;;;;;;;;;;;;;16.82;47.10;102831.13;5052462;28;19984;-75
2022/04/15 06:44:35;;;;;;;;;;;;;;;16.14;48.70;102837.22;5050142;28;20399;-77
2022/04/15 06:47:00;;;;;;;;;;;;;;;16.94;46.77;102839.41;5051646;28;19924;-75
2022/04/15 06:49:26;;;;;;;;;;;;;;;16.84;47.12;102842.59;5051830;28;19904;-75
2022/04/15 06:51:51;;;;;;;;;;;;;;;17.24;45.79;102843.16;5051392;28;19916;-74
2022/04/15 06:54:16;;;;;;;;;;;;;;;16.95;46.71;102846.50;5051004;28;19939;-76
2022/04/15 06:56:41;;;;;;;;;;;;;;;17.60;44.90;102839.75;5051985;28;19917;-77
2022/04/15 06:59:07;;;;;;;;;;;;;;;17.26;45.91;102852.75;5052731;28;19923;-76
2022/04/15 07:01:35;;;;;;;;;;;;;;;16.26;47.46;102849.94;5053218;28;19931;-75
2022/04/15 07:04:03;;;;;;;;;;;;;;;15.83;48.29;102846.06;5052355;28;19951;-76
2022/04/15 07:06:29;;;;;;;;;;;;;;;17.00;45.50;102850.22;5050202;28;20269;-74
2022/04/15 07:08:54;;;;;;;;;;;;;;;17.20;44.93;102859.06;5051050;28;19919;-74
2022/04/15 07:11:19;;;;;;;;;;;;;;;16.27;46.94;102853.47;5051017;28;19917;-75
2022/04/15 07:13:44;;;;;;;;;;;;;;;16.55;46.31;102862.16;5050988;28;19909;-74
2022/04/15 07:16:10;;;;;;;;;;;;;;;16.81;45.68;102861.19;5049791;28;19923;-73
2022/04/15 07:18:35;;;;;;;;;;;;;;;17.07;44.74;102864.59;5050131;28;19962;-76
2022/04/15 07:21:00;;;;;;;;;;;;;;;16.46;45.83;102864.25;5049175;28;20039;-75
2022/04/15 07:23:25;;;;;;;;;;;;;;;15.99;48.04;102870.03;5051303;28;19944;-74
2022/04/15 07:25:51;;;;;;;;;;;;;;;17.22;44.94;102867.84;5050567;28;19913;-74
2022/04/15 07:28:16;;;;;;;;;;;;;;;17.40;44.56;102865.19;5050489;28;20368;-75
2022/04/15 07:30:41;;;;;;;;;;;;;;;14.91;51.29;102872.25;5051696;28;19920;-75
2022/04/15 07:33:06;;;;;;;;;;;;;;;15.50;49.87;102875.91;5050307;28;19964;-76
2022/04/15 07:35:32;;;;;;;;;;;;;;;15.06;51.19;102874.75;5050149;28;20015;-73
2022/04/15 07:37:57;;;;;;;;;;;;;;;16.51;47.48;102875.31;5046130;28;20222;-73
2022/04/15 07:40:28;;;;;;;;;;;;;;;17.06;45.62;102875.69;5046773;28;19935;-74
2022/04/15 07:42:54;;;;;;;;;;;;;;;17.64;44.02;102879.88;5049897;28;20439;-73
2022/04/15 07:45:20;;;;;;;;;;;;;;;17.42;44.39;102882.13;5048909;28;20019;-73
2022/04/15 07:47:47;;;;;;;;;;;;;;;17.67;44.15;102879.41;5049243;28;20003;-74
2022/04/15 07:50:13;;;;;;;;;;;;;;;18.09;43.08;102872.34;5048179;28;19994;-72
2022/04/15 07:52:38;;;;;;;;;;;;;;;17.92;43.71;102882.97;5050246;28;20360;-75
2022/04/15 07:55:03;;;;;;;;;;;;;;;16.69;46.71;102882.78;5048006;28;19925;-77
2022/04/15 07:57:30;;;;;;;;;;;;;;;17.23;45.54;102880.38;5050496;28;19917;-76
2022/04/15 07:59:55;;;;;;;;;;;;;;;17.14;45.66;102875.44;5050208;28;19970;-76
2022/04/15 08:02:21;;;;;;;;;;;;;;;16.62;46.53;102888.25;5049943;28;20364;-73
2022/04/15 08:04:46;;;;;;;;;;;;;;;16.32;47.63;102881.63;5050380;28;20019;-74
2022/04/15 08:07:12;;;;;;;;;;;;;;;15.88;48.68;102894.25;5049270;28;19913;-73
2022/04/15 08:09:39;;;;;;;;;;;;;;;15.70;48.79;102894.88;5049896;28;19917;-75
2022/04/15 08:12:04;;;;;;;;;;;;;;;16.57;46.17;102889.91;5050576;28;19966;-74
2022/04/15 08:14:30;;;;;;;;;;;;;;;15.93;47.45;102898.00;5048620;28;19986;-74
2022/04/15 08:16:55;;;;;;;;;;;;;;;15.39;49.13;102908.19;5050245;28;19916;-75
2022/04/15 08:19:21;;;;;;;;;;;;;;;14.89;51.05;102906.81;5050467;28;19955;-77
2022/04/15 08:21:46;;;;;;;;;;;;;;;16.09;47.65;102904.84;5050507;28;19920;-75
2022/04/15 08:24:12;;;;;;;;;;;;;;;16.60;45.86;102908.50;5050225;28;19921;-75
2022/04/15 08:26:39;;;;;;;;;;;;;;;17.55;43.79;102913.84;5050129;28;20035;-75
2022/04/15 08:29:05;;;;;;;;;;;;;;;18.17;41.61;102907.41;5052079;28;19927;-73
2022/04/15 08:31:30;;;;;;;;;;;;;;;17.94;42.90;102905.34;5056315;28;20335;-74
2022/04/15 08:33:55;;;;;;;;;;;;;;;18.36;42.41;102896.31;5055431;28;20277;-75
2022/04/15 08:36:20;;;;;;;;;;;;;;;18.12;42.85;102905.34;5053838;28;20433;-74
2022/04/15 08:38:46;;;;;;;;;;;;;;;18.19;42.92;102900.69;5054570;28;19964;-73
2022/04/15 08:41:12;;;;;;;;;;;;;;;18.08;42.17;102906.88;5055054;28;22483;-75
2022/04/15 08:43:38;;;;;;;;;;;;;;;17.30;43.19;102910.22;5054133;28;19912;-73
2022/04/15 08:46:05;;;;;;;;;;;;;;;18.21;41.78;102908.63;5051937;28;20369;-75
2022/04/15 08:48:30;;;;;;;;;;;;;;;18.48;40.35;102920.09;5053703;28;19940;-74
2022/04/15 08:50:58;;;;;;;;;;;;;;;17.47;42.20;102914.91;5054581;28;19944;-75
2022/04/15 08:53:23;;;;;;;;;;;;;;;17.07;43.68;102921.66;5083739;28;20187;-74
2022/04/15 08:55:49;;;;;;;;;;;;;;;17.76;41.72;102923.50;5052966;28;20015;-75
2022/04/15 08:58:14;;;;;;;;;;;;;;;18.19;40.97;102917.03;5051897;28;19932;-73
2022/04/15 09:00:40;;;;;;;;;;;;;;;17.96;42.13;102924.16;5051854;28;19932;-74
2022/04/15 09:03:06;;;;;;;;;;;;;;;18.36;41.10;102919.97;5051830;28;19913;-74
2022/04/15 09:05:32;;;;;;;;;;;;;;;18.01;41.08;102936.03;5050580;28;19947;-75
2022/04/15 09:08:02;;;;;;;;;;;;;;;17.04;43.39;102940.28;5052237;28;19909;-74
2022/04/15 09:10:27;;;;;;;;;;;;;;;17.58;42.39;102937.03;5052049;28;19962;-74
2022/04/15 09:12:53;;;;;;;;;;;;;;;17.48;42.30;102941.06;5052427;28;19917;-74
2022/04/15 09:15:18;;;;;;;;;;;;;;;17.65;42.13;102944.06;5052182;28;19992;-74
2022/04/15 09:17:49;;;;;;;;;;;;;;;17.51;42.86;102939.81;5052164;28;19912;-74
2022/04/15 09:20:15;;;;;;;;;;;;;;;17.82;42.06;102947.09;5050553;28;19929;-74
2022/04/15 09:22:40;;;;;;;;;;;;;;;18.19;42.13;102948.84;5051445;28;19978;-74
2022/04/15 09:25:06;;;;;;;;;;;;;;;18.66;41.37;102944.59;5051544;28;20338;-75
2022/04/15 09:27:34;;;;;;;;;;;;;;;18.45;40.67;102955.94;5048440;28;19925;-74
2022/04/15 09:29:59;;;;;;;;;;;;;;;17.89;42.51;102956.84;5051606;28;21283;-74
2022/04/15 09:32:25;;;;;;;;;;;;;;;18.28;41.57;102958.38;5050608;28;20007;-74
2022/04/15 09:34:58;;;;;;;;;;;;;;;18.66;40.66;102955.50;5053244;28;20485;-73
2022/04/15 09:37:24;;;;;;;;;;;;;;;18.91;40.96;102954.34;5052888;28;19978;-74
2022/04/15 09:40:14;;;;;;;;;;;;;;;19.02;39.84;102958.19;5051948;28;19940;-74
2022/04/15 09:42:46;;;;;;;;;;;;;;;18.22;41.11;102971.00;5050446;28;19916;-73
2022/04/15 09:45:20;;;;;;;;;;;;;;;18.76;41.84;102961.25;5050347;28;20125;-75
2022/04/15 09:47:52;;;;;;;;;;;;;;;18.72;41.24;102970.91;5055496;28;20291;-73
2022/04/15 09:50:22;;;;;;;;;;;;;;;18.98;40.66;102963.28;5049636;28;20261;-75
2022/04/15 09:52:47;;;;;;;;;;;;;;;19.21;40.12;102963.38;5052057;28;20011;-73
2022/04/15 09:55:14;;;;;;;;;;;;;;;19.04;39.47;102962.38;5051421;28;20055;-74
2022/04/15 09:57:41;;;;;;;;;;;;;;;18.41;40.60;102972.72;5050254;28;19913;-76
2022/04/15 10:00:11;;;;;;;;;;;;;;;18.20;41.16;102975.03;5050830;28;19930;-74
2022/04/15 10:02:38;;;;;;;;;;;;;;;18.41;40.89;102974.59;5051796;28;20178;-74
2022/04/15 10:05:04;;;;;;;;;;;;;;;18.75;40.71;102970.47;5051326;28;20439;-73
2022/04/15 10:07:30;;;;;;;;;;;;;;;18.63;40.69;102972.28;5052662;28;19911;-74
2022/04/15 10:09:56;;;;;;;;;;;;;;;18.67;40.71;102974.31;5050568;28;19931;-74
2022/04/15 10:12:22;;;;;;;;;;;;;;;17.38;42.93;102975.19;5051154;28;19924;-75
2022/04/15 10:14:48;;;;;;;;;;;;;;;18.94;40.12;102977.56;5050848;28;20357;-75
2022/04/15 10:17:17;;;;;;;;;;;;;;;18.92;40.00;102980.53;5051579;28;19920;-76
2022/04/15 10:19:43;;;;;;;;;;;;;;;18.60;40.82;102989.06;5049403;28;19913;-75
2022/04/15 10:22:09;;;;;;;;;;;;;;;18.05;41.92;102986.22;5050260;28;19913;-75
2022/04/15 10:24:34;;;;;;;;;;;;;;;18.58;40.33;102989.31;5050360;28;19932;-73
2022/04/15 10:27:00;;;;;;;;;;;;;;;18.90;40.59;102992.72;5050346;28;19920;-75
2022/04/15 10:29:25;;;;;;;;;;;;;;;18.53;40.45;102996.50;5049299;28;20284;-74
2022/04/15 10:31:53;;;;;;;;;;;;;;;18.58;40.84;102992.03;5074371;28;19916;-76
2022/04/15 10:34:20;;;;;;;;;;;;;;;18.36;40.89;102998.91;5050549;28;19967;-75
2022/04/15 10:36:47;;;;;;;;;;;;;;;17.00;43.30;102998.81;5051471;28;19924;-75
2022/04/15 10:39:14;;;;;;;;;;;;;;;17.71;42.32;102994.06;5051367;28;19938;-76
2022/04/15 10:41:43;;;;;;;;;;;;;;;17.28;43.13;102997.41;5051614;28;19995;-76
2022/04/15 10:44:12;;;;;;;;;;;;;;;16.16;46.24;102996.03;5048766;28;20400;-77
2022/04/15 10:46:37;;;;;;;;;;;;;;;17.42;43.42;102995.44;5051845;28;19916;-76
2022/04/15 10:49:19;;;;;;;;;;;;;;;18.15;42.10;102996.63;5050029;28;19916;-75
2022/04/15 10:51:44;;;;;;;;;;;;;;;18.64;40.64;103003.91;5050451;28;19979;-74
2022/04/15 10:54:28;;;;;;;;;;;;;;;18.03;41.96;103003.81;5051132;28;19917;-75
2022/04/15 10:57:01;;;;;;;;;;;;;;;17.33;42.81;102999.47;5047221;28;20008;-75
2022/04/15 11:02:17;;;;;;;;;;;;;;;17.86;41.97;103009.00;5041918;28;20272;-76
2022/04/15 11:04:46;;;;;;;;;;;;;;;17.43;43.67;102991.69;5048749;28;19921;-75
2022/04/15 11:07:35;;;;;;;;;;;;;;;17.87;42.53;103009.81;5051490;28;19912;-75
2022/04/15 11:10:00;;;;;;;;;;;;;;;18.07;41.62;103007.78;5051064;28;20593;-76
2022/04/15 11:12:30;;;;;;;;;;;;;;;18.54;40.54;103009.03;5044952;28;19913;-75
2022/04/15 11:14:55;;;;;;;;;;;;;;;18.34;41.28;103011.91;5051377;28;20343;-75
2022/04/15 11:17:36;;;;;;;;;;;;;;;18.70;40.49;103009.28;5050773;28;19912;-75
2022/04/15 11:20:04;;;;;;;;;;;;;;;18.42;40.68;103001.63;5048385;28;20387;-76
2022/04/15 11:22:31;;;;;;;;;;;;;;;18.31;41.44;103006.94;5051756;28;19934;-75
2022/04/15 11:24:56;;;;;;;;;;;;;;;18.37;41.59;103008.78;5050421;28;19968;-74
2022/04/15 11:27:22;;;;;;;;;;;;;;;18.31;41.11;103013.22;5049826;28;20415;-74
2022/04/15 11:29:47;;;;;;;;;;;;;;;18.58;40.71;103004.81;5050869;28;19960;-75
2022/04/15 11:32:13;;;;;;;;;;;;;;;18.38;41.29;103002.25;5050755;28;20023;-77
2022/04/15 11:34:38;;;;;;;;;;;;;;;18.44;40.98;103006.84;5050112;28;19995;-74
2022/04/15 11:37:06;;;;;;;;;;;;;;;18.73;40.15;103003.38;5049302;28;20383;-75
2022/04/15 11:39:35;;;;;;;;;;;;;;;18.83;40.91;103000.16;5048306;28;19916;-75
2022/04/15 11:42:02;;;;;;;;;;;;;;;19.15;39.83;103002.47;5048179;28;19920;-75
2022/04/15 11:44:30;;;;;;;;;;;;;;;19.25;39.12;102994.56;5049032;28;19920;-75
2022/04/15 11:47:15;;;;;;;;;;;;;;;18.92;40.19;102996.03;5049986;28;19912;-75
2022/04/15 11:49:41;;;;;;;;;;;;;;;18.90;40.36;103003.63;5050755;28;19938;-75
2022/04/15 11:52:07;;;;;;;;;;;;;;;17.10;44.44;102994.56;5049932;28;19921;-73
2022/04/15 11:54:38;;;;;;;;;;;;;;;17.81;42.09;102991.69;5048193;28;19920;-75
2022/04/15 11:57:03;;;;;;;;;;;;;;;17.95;41.67;102993.22;5046906;28;19917;-75
2022/04/15 11:59:36;;;;;;;;;;;;;;;18.77;40.50;102995.59;5049008;28;20019;-75
2022/04/15 12:02:02;;;;;;;;;;;;;;;19.02;40.08;102990.91;5048623;28;20280;-75
2022/04/15 12:04:27;;;;;;;;;;;;;;;19.14;40.02;102994.50;5051004;28;19912;-74
2022/04/15 12:06:53;;;;;;;;;;;;;;;19.55;38.74;102991.03;5048568;28;19917;-75
2022/04/15 12:09:18;;;;;;;;;;;;;;;19.61;39.13;102987.38;5049311;28;19995;-76
2022/04/15 12:11:43;;;;;;;;;;;;;;;19.41;39.48;103004.03;5052287;28;19917;-76
2022/04/15 12:14:09;;;;;;;;;;;;;;;19.57;38.32;103003.38;5051364;28;19956;-75
2022/04/15 12:16:39;;;;;;;;;;;;;;;19.39;39.31;102999.84;5051836;28;19936;-75
2022/04/15 12:19:04;;;;;;;;;;;;;;;19.64;38.89;103003.25;5051147;28;19912;-75
2022/04/15 12:21:31;;;;;;;;;;;;;;;19.17;39.48;103008.50;5051075;28;20012;-75
2022/04/15 12:24:09;;;;;;;;;;;;;;;19.50;39.08;102997.16;5051581;28;19936;-75
2022/04/15 12:27:01;;;;;;;;;;;;;;;19.90;37.76;103002.88;5050771;28;19920;-76
2022/04/15 12:32:24;;;;;;;;;;;;;;;19.25;39.26;103010.94;5052716;28;19923;-77
2022/04/15 12:35:10;;;;;;;;;;;;;;;19.06;39.52;103008.44;5042851;28;20395;-75
2022/04/15 12:37:38;;;;;;;;;;;;;;;19.38;39.59;103014.56;5052898;28;19916;-77
2022/04/15 12:40:08;;;;;;;;;;;;;;;19.65;38.22;103008.50;5052660;28;19924;-76